sensor_id;sensor_type;location;lat;lon;timestamp;P1;durP1;ratioP1;P2;durP2;ratioP2
56045;SDS011;41913;51.030;3.706;2024-03-02T00:01:12;1.52;;;0.80;;
56045;SDS011;41913;51.030;3.706;2024-03-02T00:03:39;0.30;;;0.30;;
56045;SDS011;41913;51.030;3.706;2024-03-02T00:06:06;0.65;;;0.40;;
56045;SDS011;41913;51.030;3.706;2024-03-02T00:08:32;0.85;;;0.30;;
56045;SDS011;41913;51.030;3.706;2024-03-02T00:10:59;0.40;;;0.40;;
56045;SDS011;41913;51.030;3.706;2024-03-02T00:13:25;0.50;;;0.50;;
56045;SDS011;41913;51.030;3.706;2024-03-02T00:15:55;0.50;;;0.50;;
56045;SDS011;41913;51.030;3.706;2024-03-02T00:18:25;1.35;;;0.40;;
56045;SDS011;41913;51.030;3.706;2024-03-02T00:20:54;3.20;;;0.40;;
56045;SDS011;41913;51.030;3.706;2024-03-02T00:23:21;0.20;;;0.20;;
56045;SDS011;41913;51.030;3.706;2024-03-02T00:25:52;1.10;;;0.45;;
56045;SDS011;41913;51.030;3.706;2024-03-02T00:28:23;0.38;;;0.38;;
56045;SDS011;41913;51.030;3.706;2024-03-02T00:33:23;0.47;;;0.40;;
56045;SDS011;41913;51.030;3.706;2024-03-02T00:35:53;0.47;;;0.47;;
56045;SDS011;41913;51.030;3.706;2024-03-02T00:38:19;0.30;;;0.30;;
56045;SDS011;41913;51.030;3.706;2024-03-02T00:40:45;0.50;;;0.50;;
56045;SDS011;41913;51.030;3.706;2024-03-02T00:46:07;0.50;;;0.50;;
56045;SDS011;41913;51.030;3.706;2024-03-02T00:48:33;3.13;;;0.30;;
56045;SDS011;41913;51.030;3.706;2024-03-02T00:51:03;3.85;;;0.98;;
56045;SDS011;41913;51.030;3.706;2024-03-02T00:53:31;0.47;;;0.47;;
56045;SDS011;41913;51.030;3.706;2024-03-02T00:55:58;0.98;;;0.30;;
56045;SDS011;41913;51.030;3.706;2024-03-02T00:58:27;0.30;;;0.30;;
56045;SDS011;41913;51.030;3.706;2024-03-02T01:00:53;0.50;;;0.22;;
56045;SDS011;41913;51.030;3.706;2024-03-02T01:03:19;0.40;;;0.40;;
56045;SDS011;41913;51.030;3.706;2024-03-02T01:05:45;0.20;;;0.20;;
56045;SDS011;41913;51.030;3.706;2024-03-02T01:08:11;0.35;;;0.20;;
56045;SDS011;41913;51.030;3.706;2024-03-02T01:10:37;0.30;;;0.30;;
56045;SDS011;41913;51.030;3.706;2024-03-02T01:13:03;0.20;;;0.20;;
56045;SDS011;41913;51.030;3.706;2024-03-02T01:15:29;1.27;;;0.50;;
56045;SDS011;41913;51.030;3.706;2024-03-02T01:17:54;0.70;;;0.22;;
56045;SDS011;41913;51.030;3.706;2024-03-02T01:20:20;0.40;;;0.40;;
56045;SDS011;41913;51.030;3.706;2024-03-02T01:22:48;0.30;;;0.30;;
56045;SDS011;41913;51.030;3.706;2024-03-02T01:25:13;1.13;;;0.20;;
56045;SDS011;41913;51.030;3.706;2024-03-02T01:27:39;1.67;;;0.20;;
56045;SDS011;41913;51.030;3.706;2024-03-02T01:30:06;0.88;;;0.50;;
56045;SDS011;41913;51.030;3.706;2024-03-02T01:32:32;0.30;;;0.30;;
56045;SDS011;41913;51.030;3.706;2024-03-02T01:34:59;0.50;;;0.35;;
56045;SDS011;41913;51.030;3.706;2024-03-02T01:37:25;0.30;;;0.30;;
56045;SDS011;41913;51.030;3.706;2024-03-02T01:39:51;0.40;;;0.40;;
56045;SDS011;41913;51.030;3.706;2024-03-02T01:42:17;0.50;;;0.50;;
56045;SDS011;41913;51.030;3.706;2024-03-02T01:44:42;0.30;;;0.30;;
56045;SDS011;41913;51.030;3.706;2024-03-02T01:47:08;0.32;;;0.32;;
56045;SDS011;41913;51.030;3.706;2024-03-02T01:49:34;1.55;;;0.50;;
56045;SDS011;41913;51.030;3.706;2024-03-02T01:52:00;0.43;;;0.43;;
56045;SDS011;41913;51.030;3.706;2024-03-02T01:54:26;0.35;;;0.35;;
56045;SDS011;41913;51.030;3.706;2024-03-02T01:56:52;2.33;;;0.28;;
56045;SDS011;41913;51.030;3.706;2024-03-02T01:59:18;0.20;;;0.20;;
56045;SDS011;41913;51.030;3.706;2024-03-02T02:01:44;0.60;;;0.60;;
56045;SDS011;41913;51.030;3.706;2024-03-02T02:04:10;0.30;;;0.28;;
56045;SDS011;41913;51.030;3.706;2024-03-02T02:06:36;0.52;;;0.52;;
56045;SDS011;41913;51.030;3.706;2024-03-02T02:09:03;0.30;;;0.30;;
56045;SDS011;41913;51.030;3.706;2024-03-02T02:11:29;0.40;;;0.40;;
56045;SDS011;41913;51.030;3.706;2024-03-02T02:13:55;0.40;;;0.35;;
56045;SDS011;41913;51.030;3.706;2024-03-02T02:16:20;0.30;;;0.30;;
56045;SDS011;41913;51.030;3.706;2024-03-02T02:18:46;0.77;;;0.50;;
56045;SDS011;41913;51.030;3.706;2024-03-02T02:21:12;0.30;;;0.20;;
56045;SDS011;41913;51.030;3.706;2024-03-02T02:23:38;0.20;;;0.20;;
56045;SDS011;41913;51.030;3.706;2024-03-02T02:26:04;0.38;;;0.25;;
56045;SDS011;41913;51.030;3.706;2024-03-02T02:28:30;0.30;;;0.30;;
56045;SDS011;41913;51.030;3.706;2024-03-02T02:30:56;0.30;;;0.30;;
56045;SDS011;41913;51.030;3.706;2024-03-02T02:33:22;0.20;;;0.20;;
56045;SDS011;41913;51.030;3.706;2024-03-02T02:35:48;0.93;;;0.43;;
56045;SDS011;41913;51.030;3.706;2024-03-02T02:38:13;0.95;;;0.50;;
56045;SDS011;41913;51.030;3.706;2024-03-02T02:40:39;0.55;;;0.30;;
56045;SDS011;41913;51.030;3.706;2024-03-02T02:43:05;0.50;;;0.50;;
56045;SDS011;41913;51.030;3.706;2024-03-02T02:45:32;0.30;;;0.30;;
56045;SDS011;41913;51.030;3.706;2024-03-02T02:47:58;0.88;;;0.50;;
56045;SDS011;41913;51.030;3.706;2024-03-02T02:50:23;1.30;;;0.50;;
56045;SDS011;41913;51.030;3.706;2024-03-02T02:52:49;1.85;;;0.40;;
56045;SDS011;41913;51.030;3.706;2024-03-02T02:55:15;0.90;;;0.43;;
56045;SDS011;41913;51.030;3.706;2024-03-02T02:57:42;1.15;;;0.40;;
56045;SDS011;41913;51.030;3.706;2024-03-02T03:00:09;0.52;;;0.40;;
56045;SDS011;41913;51.030;3.706;2024-03-02T03:02:39;0.68;;;0.40;;
56045;SDS011;41913;51.030;3.706;2024-03-02T03:05:07;0.85;;;0.52;;
56045;SDS011;41913;51.030;3.706;2024-03-02T03:07:34;0.25;;;0.25;;
56045;SDS011;41913;51.030;3.706;2024-03-02T03:10:02;0.52;;;0.40;;
56045;SDS011;41913;51.030;3.706;2024-03-02T03:12:29;1.17;;;0.43;;
56045;SDS011;41913;51.030;3.706;2024-03-02T03:14:56;0.63;;;0.52;;
56045;SDS011;41913;51.030;3.706;2024-03-02T03:17:22;0.55;;;0.55;;
56045;SDS011;41913;51.030;3.706;2024-03-02T03:19:49;1.30;;;0.60;;
56045;SDS011;41913;51.030;3.706;2024-03-02T03:22:15;0.80;;;0.43;;
56045;SDS011;41913;51.030;3.706;2024-03-02T03:24:41;1.45;;;0.45;;
56045;SDS011;41913;51.030;3.706;2024-03-02T03:27:07;0.28;;;0.28;;
56045;SDS011;41913;51.030;3.706;2024-03-02T03:29:33;0.80;;;0.80;;
56045;SDS011;41913;51.030;3.706;2024-03-02T03:31:59;0.55;;;0.55;;
56045;SDS011;41913;51.030;3.706;2024-03-02T03:34:24;1.08;;;0.52;;
56045;SDS011;41913;51.030;3.706;2024-03-02T03:36:51;0.40;;;0.40;;
56045;SDS011;41913;51.030;3.706;2024-03-02T03:39:17;2.15;;;0.68;;
56045;SDS011;41913;51.030;3.706;2024-03-02T03:41:43;2.65;;;0.50;;
56045;SDS011;41913;51.030;3.706;2024-03-02T03:44:09;1.65;;;0.47;;
56045;SDS011;41913;51.030;3.706;2024-03-02T03:46:34;1.02;;;0.40;;
56045;SDS011;41913;51.030;3.706;2024-03-02T03:49:00;1.67;;;0.45;;
56045;SDS011;41913;51.030;3.706;2024-03-02T03:51:26;1.13;;;0.45;;
56045;SDS011;41913;51.030;3.706;2024-03-02T03:53:52;0.50;;;0.40;;
56045;SDS011;41913;51.030;3.706;2024-03-02T03:56:18;0.50;;;0.50;;
56045;SDS011;41913;51.030;3.706;2024-03-02T03:58:43;3.13;;;0.47;;
56045;SDS011;41913;51.030;3.706;2024-03-02T04:01:09;0.57;;;0.55;;
56045;SDS011;41913;51.030;3.706;2024-03-02T04:03:35;1.08;;;0.60;;
56045;SDS011;41913;51.030;3.706;2024-03-02T04:06:01;0.43;;;0.40;;
56045;SDS011;41913;51.030;3.706;2024-03-02T04:08:28;0.65;;;0.60;;
56045;SDS011;41913;51.030;3.706;2024-03-02T04:10:54;0.60;;;0.60;;
56045;SDS011;41913;51.030;3.706;2024-03-02T04:13:20;0.85;;;0.40;;
56045;SDS011;41913;51.030;3.706;2024-03-02T04:15:46;1.38;;;0.60;;
56045;SDS011;41913;51.030;3.706;2024-03-02T04:18:12;1.75;;;0.50;;
56045;SDS011;41913;51.030;3.706;2024-03-02T04:20:38;0.40;;;0.40;;
56045;SDS011;41913;51.030;3.706;2024-03-02T04:23:03;1.02;;;0.57;;
56045;SDS011;41913;51.030;3.706;2024-03-02T04:25:29;0.40;;;0.40;;
56045;SDS011;41913;51.030;3.706;2024-03-02T04:27:56;0.30;;;0.30;;
56045;SDS011;41913;51.030;3.706;2024-03-02T04:30:23;0.47;;;0.47;;
56045;SDS011;41913;51.030;3.706;2024-03-02T04:32:50;1.38;;;0.52;;
56045;SDS011;41913;51.030;3.706;2024-03-02T04:35:16;0.68;;;0.60;;
56045;SDS011;41913;51.030;3.706;2024-03-02T04:37:42;1.40;;;0.52;;
56045;SDS011;41913;51.030;3.706;2024-03-02T04:40:08;0.30;;;0.30;;
56045;SDS011;41913;51.030;3.706;2024-03-02T04:42:36;0.75;;;0.47;;
56045;SDS011;41913;51.030;3.706;2024-03-02T04:45:02;0.38;;;0.38;;
56045;SDS011;41913;51.030;3.706;2024-03-02T04:47:28;3.70;;;0.70;;
56045;SDS011;41913;51.030;3.706;2024-03-02T04:49:54;0.68;;;0.30;;
56045;SDS011;41913;51.030;3.706;2024-03-02T04:52:20;1.45;;;0.35;;
56045;SDS011;41913;51.030;3.706;2024-03-02T04:54:46;0.55;;;0.35;;
56045;SDS011;41913;51.030;3.706;2024-03-02T04:57:31;0.55;;;0.43;;
56045;SDS011;41913;51.030;3.706;2024-03-02T04:59:56;0.30;;;0.30;;
56045;SDS011;41913;51.030;3.706;2024-03-02T05:02:22;1.45;;;0.40;;
56045;SDS011;41913;51.030;3.706;2024-03-02T05:04:48;0.75;;;0.70;;
56045;SDS011;41913;51.030;3.706;2024-03-02T05:07:14;0.32;;;0.30;;
56045;SDS011;41913;51.030;3.706;2024-03-02T05:09:41;0.47;;;0.40;;
56045;SDS011;41913;51.030;3.706;2024-03-02T05:12:07;0.98;;;0.20;;
56045;SDS011;41913;51.030;3.706;2024-03-02T05:15:02;4.18;;;0.30;;
56045;SDS011;41913;51.030;3.706;2024-03-02T05:17:28;0.30;;;0.30;;
56045;SDS011;41913;51.030;3.706;2024-03-02T05:19:54;1.25;;;0.50;;
56045;SDS011;41913;51.030;3.706;2024-03-02T05:22:20;1.02;;;0.30;;
56045;SDS011;41913;51.030;3.706;2024-03-02T05:24:46;1.60;;;0.40;;
56045;SDS011;41913;51.030;3.706;2024-03-02T05:27:12;0.30;;;0.20;;
56045;SDS011;41913;51.030;3.706;2024-03-02T05:29:38;1.05;;;0.63;;
56045;SDS011;41913;51.030;3.706;2024-03-02T05:32:03;0.20;;;0.20;;
56045;SDS011;41913;51.030;3.706;2024-03-02T05:34:29;0.68;;;0.47;;
56045;SDS011;41913;51.030;3.706;2024-03-02T05:36:57;0.30;;;0.30;;
56045;SDS011;41913;51.030;3.706;2024-03-02T05:39:23;0.47;;;0.30;;
56045;SDS011;41913;51.030;3.706;2024-03-02T05:41:49;0.50;;;0.40;;
56045;SDS011;41913;51.030;3.706;2024-03-02T05:44:15;0.30;;;0.30;;
56045;SDS011;41913;51.030;3.706;2024-03-02T05:46:41;1.30;;;0.30;;
56045;SDS011;41913;51.030;3.706;2024-03-02T05:49:07;0.45;;;0.40;;
56045;SDS011;41913;51.030;3.706;2024-03-02T05:51:36;0.45;;;0.30;;
56045;SDS011;41913;51.030;3.706;2024-03-02T05:54:02;0.57;;;0.40;;
56045;SDS011;41913;51.030;3.706;2024-03-02T05:56:29;0.43;;;0.43;;
56045;SDS011;41913;51.030;3.706;2024-03-02T05:58:55;1.42;;;0.60;;
56045;SDS011;41913;51.030;3.706;2024-03-02T06:01:44;0.38;;;0.38;;
56045;SDS011;41913;51.030;3.706;2024-03-02T06:04:15;0.40;;;0.38;;
56045;SDS011;41913;51.030;3.706;2024-03-02T06:06:41;0.60;;;0.40;;
56045;SDS011;41913;51.030;3.706;2024-03-02T06:09:09;0.38;;;0.38;;
56045;SDS011;41913;51.030;3.706;2024-03-02T06:11:37;0.98;;;0.35;;
56045;SDS011;41913;51.030;3.706;2024-03-02T06:14:04;0.57;;;0.40;;
56045;SDS011;41913;51.030;3.706;2024-03-02T06:16:31;1.38;;;0.43;;
56045;SDS011;41913;51.030;3.706;2024-03-02T06:18:58;0.50;;;0.50;;
56045;SDS011;41913;51.030;3.706;2024-03-02T06:21:24;0.70;;;0.40;;
56045;SDS011;41913;51.030;3.706;2024-03-02T06:23:50;2.28;;;0.70;;
56045;SDS011;41913;51.030;3.706;2024-03-02T06:26:16;0.40;;;0.40;;
56045;SDS011;41913;51.030;3.706;2024-03-02T06:28:43;2.28;;;0.40;;
56045;SDS011;41913;51.030;3.706;2024-03-02T06:31:10;0.63;;;0.63;;
56045;SDS011;41913;51.030;3.706;2024-03-02T06:33:36;3.17;;;0.30;;
56045;SDS011;41913;51.030;3.706;2024-03-02T06:36:03;0.80;;;0.52;;
56045;SDS011;41913;51.030;3.706;2024-03-02T06:38:29;0.28;;;0.20;;
56045;SDS011;41913;51.030;3.706;2024-03-02T06:40:58;2.42;;;0.43;;
56045;SDS011;41913;51.030;3.706;2024-03-02T06:43:24;0.70;;;0.45;;
56045;SDS011;41913;51.030;3.706;2024-03-02T06:45:50;0.82;;;0.50;;
56045;SDS011;41913;51.030;3.706;2024-03-02T06:48:16;0.47;;;0.40;;
56045;SDS011;41913;51.030;3.706;2024-03-02T06:50:46;0.65;;;0.65;;
56045;SDS011;41913;51.030;3.706;2024-03-02T06:53:15;1.38;;;0.32;;
56045;SDS011;41913;51.030;3.706;2024-03-02T06:55:45;1.88;;;0.77;;
56045;SDS011;41913;51.030;3.706;2024-03-02T06:58:12;0.47;;;0.47;;
56045;SDS011;41913;51.030;3.706;2024-03-02T07:00:40;2.58;;;0.40;;
56045;SDS011;41913;51.030;3.706;2024-03-02T07:03:06;0.50;;;0.50;;
56045;SDS011;41913;51.030;3.706;2024-03-02T07:05:32;4.68;;;0.32;;
56045;SDS011;41913;51.030;3.706;2024-03-02T07:07:58;0.82;;;0.43;;
56045;SDS011;41913;51.030;3.706;2024-03-02T07:10:24;2.95;;;0.57;;
56045;SDS011;41913;51.030;3.706;2024-03-02T07:12:50;2.25;;;0.85;;
56045;SDS011;41913;51.030;3.706;2024-03-02T07:15:15;2.10;;;0.35;;
56045;SDS011;41913;51.030;3.706;2024-03-02T07:17:53;0.50;;;0.47;;
56045;SDS011;41913;51.030;3.706;2024-03-02T07:20:19;0.38;;;0.38;;
56045;SDS011;41913;51.030;3.706;2024-03-02T07:22:47;1.35;;;0.60;;
56045;SDS011;41913;51.030;3.706;2024-03-02T07:25:13;0.85;;;0.45;;
56045;SDS011;41913;51.030;3.706;2024-03-02T07:27:39;1.02;;;0.55;;
56045;SDS011;41913;51.030;3.706;2024-03-02T07:30:06;0.60;;;0.60;;
56045;SDS011;41913;51.030;3.706;2024-03-02T07:32:32;1.42;;;0.80;;
56045;SDS011;41913;51.030;3.706;2024-03-02T07:34:58;0.80;;;0.80;;
56045;SDS011;41913;51.030;3.706;2024-03-02T07:37:26;0.65;;;0.65;;
56045;SDS011;41913;51.030;3.706;2024-03-02T07:39:52;1.23;;;0.80;;
56045;SDS011;41913;51.030;3.706;2024-03-02T07:42:18;0.70;;;0.70;;
56045;SDS011;41913;51.030;3.706;2024-03-02T07:44:44;1.60;;;0.35;;
56045;SDS011;41913;51.030;3.706;2024-03-02T07:47:10;0.50;;;0.50;;
56045;SDS011;41913;51.030;3.706;2024-03-02T07:49:36;1.65;;;0.50;;
56045;SDS011;41913;51.030;3.706;2024-03-02T07:52:02;0.80;;;0.50;;
56045;SDS011;41913;51.030;3.706;2024-03-02T07:54:28;1.50;;;0.82;;
56045;SDS011;41913;51.030;3.706;2024-03-02T07:56:54;1.38;;;0.70;;
56045;SDS011;41913;51.030;3.706;2024-03-02T07:59:20;1.83;;;0.63;;
56045;SDS011;41913;51.030;3.706;2024-03-02T08:01:48;2.55;;;0.70;;
56045;SDS011;41913;51.030;3.706;2024-03-02T08:04:16;2.88;;;0.63;;
56045;SDS011;41913;51.030;3.706;2024-03-02T08:06:42;0.77;;;0.75;;
56045;SDS011;41913;51.030;3.706;2024-03-02T08:09:08;5.80;;;1.00;;
56045;SDS011;41913;51.030;3.706;2024-03-02T08:11:35;3.25;;;0.90;;
56045;SDS011;41913;51.030;3.706;2024-03-02T08:14:02;2.08;;;1.00;;
56045;SDS011;41913;51.030;3.706;2024-03-02T08:16:28;1.33;;;0.80;;
56045;SDS011;41913;51.030;3.706;2024-03-02T08:18:54;7.80;;;1.30;;
56045;SDS011;41913;51.030;3.706;2024-03-02T08:21:23;6.50;;;1.67;;
56045;SDS011;41913;51.030;3.706;2024-03-02T08:23:49;10.48;;;1.88;;
56045;SDS011;41913;51.030;3.706;2024-03-02T08:26:15;3.28;;;1.08;;
56045;SDS011;41913;51.030;3.706;2024-03-02T08:28:43;2.08;;;1.35;;
56045;SDS011;41913;51.030;3.706;2024-03-02T08:31:09;5.25;;;1.40;;
56045;SDS011;41913;51.030;3.706;2024-03-02T08:33:35;12.07;;;1.30;;
56045;SDS011;41913;51.030;3.706;2024-03-02T08:36:01;2.53;;;1.20;;
56045;SDS011;41913;51.030;3.706;2024-03-02T08:38:27;12.77;;;1.77;;
56045;SDS011;41913;51.030;3.706;2024-03-02T08:40:54;18.85;;;2.47;;
56045;SDS011;41913;51.030;3.706;2024-03-02T08:43:21;8.52;;;1.42;;
56045;SDS011;41913;51.030;3.706;2024-03-02T08:45:48;15.15;;;2.60;;
56045;SDS011;41913;51.030;3.706;2024-03-02T08:48:16;7.05;;;1.05;;
56045;SDS011;41913;51.030;3.706;2024-03-02T08:50:42;27.70;;;2.08;;
56045;SDS011;41913;51.030;3.706;2024-03-02T08:53:08;16.83;;;2.13;;
56045;SDS011;41913;51.030;3.706;2024-03-02T08:55:34;6.07;;;1.30;;
56045;SDS011;41913;51.030;3.706;2024-03-02T08:58:00;8.45;;;1.38;;
56045;SDS011;41913;51.030;3.706;2024-03-02T09:00:26;4.18;;;1.10;;
56045;SDS011;41913;51.030;3.706;2024-03-02T09:02:54;8.50;;;1.73;;
56045;SDS011;41913;51.030;3.706;2024-03-02T09:05:20;10.25;;;1.45;;
56045;SDS011;41913;51.030;3.706;2024-03-02T09:07:46;4.25;;;1.25;;
56045;SDS011;41913;51.030;3.706;2024-03-02T09:10:11;6.22;;;1.48;;
56045;SDS011;41913;51.030;3.706;2024-03-02T09:12:37;11.35;;;1.77;;
56045;SDS011;41913;51.030;3.706;2024-03-02T09:15:04;10.15;;;1.35;;
56045;SDS011;41913;51.030;3.706;2024-03-02T09:17:31;12.57;;;1.20;;
56045;SDS011;41913;51.030;3.706;2024-03-02T09:19:57;5.88;;;1.15;;
56045;SDS011;41913;51.030;3.706;2024-03-02T09:22:23;12.50;;;2.05;;
56045;SDS011;41913;51.030;3.706;2024-03-02T09:24:49;17.77;;;1.95;;
56045;SDS011;41913;51.030;3.706;2024-03-02T09:27:15;29.45;;;2.20;;
56045;SDS011;41913;51.030;3.706;2024-03-02T09:29:40;15.40;;;1.55;;
56045;SDS011;41913;51.030;3.706;2024-03-02T09:32:06;5.68;;;1.52;;
56045;SDS011;41913;51.030;3.706;2024-03-02T09:34:33;9.35;;;1.33;;
56045;SDS011;41913;51.030;3.706;2024-03-02T09:36:59;6.07;;;1.02;;
56045;SDS011;41913;51.030;3.706;2024-03-02T09:39:25;6.40;;;1.88;;
56045;SDS011;41913;51.030;3.706;2024-03-02T09:41:51;3.38;;;0.98;;
56045;SDS011;41913;51.030;3.706;2024-03-02T09:44:17;3.65;;;1.17;;
56045;SDS011;41913;51.030;3.706;2024-03-02T09:46:43;4.43;;;0.98;;
56045;SDS011;41913;51.030;3.706;2024-03-02T09:49:12;9.10;;;1.40;;
56045;SDS011;41913;51.030;3.706;2024-03-02T09:51:38;4.50;;;1.20;;
56045;SDS011;41913;51.030;3.706;2024-03-02T09:54:07;7.65;;;1.55;;
56045;SDS011;41913;51.030;3.706;2024-03-02T09:56:34;6.63;;;1.25;;
56045;SDS011;41913;51.030;3.706;2024-03-02T09:59:01;7.90;;;1.10;;
56045;SDS011;41913;51.030;3.706;2024-03-02T10:01:26;1.33;;;0.88;;
56045;SDS011;41913;51.030;3.706;2024-03-02T10:03:52;4.32;;;1.20;;
56045;SDS011;41913;51.030;3.706;2024-03-02T10:06:22;6.00;;;1.75;;
56045;SDS011;41913;51.030;3.706;2024-03-02T10:08:49;2.97;;;1.00;;
56045;SDS011;41913;51.030;3.706;2024-03-02T10:11:25;8.65;;;1.75;;
56045;SDS011;41913;51.030;3.706;2024-03-02T10:16:42;6.28;;;1.40;;
56045;SDS011;41913;51.030;3.706;2024-03-02T10:24:08;6.00;;;1.10;;
56045;SDS011;41913;51.030;3.706;2024-03-02T10:26:33;6.00;;;0.90;;
56045;SDS011;41913;51.030;3.706;2024-03-02T10:28:59;4.90;;;1.17;;
56045;SDS011;41913;51.030;3.706;2024-03-02T10:31:25;2.65;;;1.23;;
56045;SDS011;41913;51.030;3.706;2024-03-02T10:33:56;3.65;;;1.08;;
56045;SDS011;41913;51.030;3.706;2024-03-02T10:36:23;2.00;;;0.88;;
56045;SDS011;41913;51.030;3.706;2024-03-02T10:38:51;2.17;;;1.33;;
56045;SDS011;41913;51.030;3.706;2024-03-02T10:41:23;1.90;;;1.05;;
56045;SDS011;41913;51.030;3.706;2024-03-02T10:43:50;4.53;;;0.82;;
56045;SDS011;41913;51.030;3.706;2024-03-02T10:46:34;4.35;;;0.98;;
56045;SDS011;41913;51.030;3.706;2024-03-02T10:49:04;1.20;;;0.60;;
56045;SDS011;41913;51.030;3.706;2024-03-02T10:51:31;1.67;;;0.80;;
56045;SDS011;41913;51.030;3.706;2024-03-02T10:53:59;3.80;;;1.27;;
56045;SDS011;41913;51.030;3.706;2024-03-02T10:56:32;1.92;;;0.77;;
56045;SDS011;41913;51.030;3.706;2024-03-02T10:59:01;0.80;;;0.75;;
56045;SDS011;41913;51.030;3.706;2024-03-02T11:01:32;2.63;;;1.00;;
56045;SDS011;41913;51.030;3.706;2024-03-02T11:03:58;0.70;;;0.70;;
56045;SDS011;41913;51.030;3.706;2024-03-02T11:06:28;2.22;;;0.65;;
56045;SDS011;41913;51.030;3.706;2024-03-02T11:08:57;1.25;;;0.77;;
56045;SDS011;41913;51.030;3.706;2024-03-02T11:11:29;3.15;;;0.68;;
56045;SDS011;41913;51.030;3.706;2024-03-02T11:13:57;1.65;;;0.73;;
56045;SDS011;41913;51.030;3.706;2024-03-02T11:19:00;1.05;;;0.93;;
56045;SDS011;41913;51.030;3.706;2024-03-02T11:21:36;2.45;;;0.63;;
56045;SDS011;41913;51.030;3.706;2024-03-02T11:26:49;1.70;;;0.90;;
56045;SDS011;41913;51.030;3.706;2024-03-02T11:32:03;1.83;;;1.10;;
56045;SDS011;41913;51.030;3.706;2024-03-02T11:34:30;3.78;;;1.20;;
56045;SDS011;41913;51.030;3.706;2024-03-02T11:37:03;1.35;;;0.90;;
56045;SDS011;41913;51.030;3.706;2024-03-02T11:39:30;2.55;;;0.95;;
56045;SDS011;41913;51.030;3.706;2024-03-02T11:41:56;2.83;;;0.85;;
56045;SDS011;41913;51.030;3.706;2024-03-02T11:44:26;2.20;;;0.70;;
56045;SDS011;41913;51.030;3.706;2024-03-02T11:47:02;0.75;;;0.55;;
56045;SDS011;41913;51.030;3.706;2024-03-02T11:49:45;3.05;;;1.10;;
56045;SDS011;41913;51.030;3.706;2024-03-02T11:52:12;2.85;;;0.80;;
56045;SDS011;41913;51.030;3.706;2024-03-02T11:54:41;2.13;;;0.90;;
56045;SDS011;41913;51.030;3.706;2024-03-02T11:57:17;3.90;;;0.65;;
56045;SDS011;41913;51.030;3.706;2024-03-02T11:59:44;0.85;;;0.82;;
56045;SDS011;41913;51.030;3.706;2024-03-02T12:02:17;2.00;;;1.08;;
56045;SDS011;41913;51.030;3.706;2024-03-02T12:04:47;2.17;;;1.27;;
56045;SDS011;41913;51.030;3.706;2024-03-02T12:07:21;6.20;;;0.98;;
56045;SDS011;41913;51.030;3.706;2024-03-02T12:09:48;4.80;;;1.20;;
56045;SDS011;41913;51.030;3.706;2024-03-02T12:12:24;2.70;;;1.05;;
56045;SDS011;41913;51.030;3.706;2024-03-02T12:14:53;3.67;;;1.10;;
56045;SDS011;41913;51.030;3.706;2024-03-02T12:17:20;2.55;;;1.15;;
56045;SDS011;41913;51.030;3.706;2024-03-02T12:19:47;3.47;;;1.20;;
56045;SDS011;41913;51.030;3.706;2024-03-02T12:22:15;4.22;;;1.33;;
56045;SDS011;41913;51.030;3.706;2024-03-02T12:24:41;1.65;;;0.88;;
56045;SDS011;41913;51.030;3.706;2024-03-02T12:27:10;4.78;;;1.02;;
56045;SDS011;41913;51.030;3.706;2024-03-02T12:29:37;1.45;;;1.20;;
56045;SDS011;41913;51.030;3.706;2024-03-02T12:32:04;2.58;;;1.27;;
56045;SDS011;41913;51.030;3.706;2024-03-02T12:34:31;4.80;;;1.13;;
56045;SDS011;41913;51.030;3.706;2024-03-02T12:36:57;2.70;;;1.40;;
56045;SDS011;41913;51.030;3.706;2024-03-02T12:39:23;2.17;;;1.00;;
56045;SDS011;41913;51.030;3.706;2024-03-02T12:41:49;1.98;;;1.25;;
56045;SDS011;41913;51.030;3.706;2024-03-02T12:44:16;6.00;;;1.52;;
56045;SDS011;41913;51.030;3.706;2024-03-02T12:46:43;3.42;;;1.40;;
56045;SDS011;41913;51.030;3.706;2024-03-02T12:49:10;3.22;;;1.15;;
56045;SDS011;41913;51.030;3.706;2024-03-02T12:51:37;10.10;;;1.80;;
56045;SDS011;41913;51.030;3.706;2024-03-02T12:54:09;3.53;;;1.65;;
56045;SDS011;41913;51.030;3.706;2024-03-02T12:56:36;2.75;;;1.20;;
56045;SDS011;41913;51.030;3.706;2024-03-02T12:59:03;3.13;;;1.23;;
56045;SDS011;41913;51.030;3.706;2024-03-02T13:01:29;3.65;;;1.20;;
56045;SDS011;41913;51.030;3.706;2024-03-02T13:03:57;3.78;;;1.23;;
56045;SDS011;41913;51.030;3.706;2024-03-02T13:06:24;2.38;;;1.17;;
56045;SDS011;41913;51.030;3.706;2024-03-02T13:08:53;4.45;;;1.30;;
56045;SDS011;41913;51.030;3.706;2024-03-02T13:11:20;1.30;;;1.00;;
56045;SDS011;41913;51.030;3.706;2024-03-02T13:13:48;7.25;;;1.30;;
56045;SDS011;41913;51.030;3.706;2024-03-02T13:16:14;3.03;;;1.55;;
56045;SDS011;41913;51.030;3.706;2024-03-02T13:18:41;4.85;;;1.40;;
56045;SDS011;41913;51.030;3.706;2024-03-02T13:21:09;3.70;;;1.13;;
56045;SDS011;41913;51.030;3.706;2024-03-02T13:23:35;5.03;;;1.63;;
56045;SDS011;41913;51.030;3.706;2024-03-02T13:26:01;3.08;;;1.45;;
56045;SDS011;41913;51.030;3.706;2024-03-02T13:28:27;3.15;;;1.23;;
56045;SDS011;41913;51.030;3.706;2024-03-02T13:30:53;3.67;;;1.35;;
56045;SDS011;41913;51.030;3.706;2024-03-02T13:33:19;2.40;;;1.27;;
56045;SDS011;41913;51.030;3.706;2024-03-02T13:35:50;2.80;;;1.10;;
56045;SDS011;41913;51.030;3.706;2024-03-02T13:38:17;7.43;;;1.23;;
56045;SDS011;41913;51.030;3.706;2024-03-02T13:40:44;4.43;;;1.02;;
56045;SDS011;41913;51.030;3.706;2024-03-02T13:43:10;7.63;;;1.52;;
56045;SDS011;41913;51.030;3.706;2024-03-02T13:45:38;6.40;;;1.67;;
56045;SDS011;41913;51.030;3.706;2024-03-02T13:48:04;4.40;;;1.25;;
56045;SDS011;41913;51.030;3.706;2024-03-02T13:50:31;5.53;;;1.60;;
56045;SDS011;41913;51.030;3.706;2024-03-02T13:52:57;13.60;;;1.75;;
56045;SDS011;41913;51.030;3.706;2024-03-02T13:55:23;4.85;;;2.08;;
56045;SDS011;41913;51.030;3.706;2024-03-02T13:57:49;7.93;;;1.27;;
56045;SDS011;41913;51.030;3.706;2024-03-02T14:00:15;7.10;;;1.77;;
56045;SDS011;41913;51.030;3.706;2024-03-02T14:02:42;7.80;;;1.33;;
56045;SDS011;41913;51.030;3.706;2024-03-02T14:05:08;5.13;;;1.30;;
56045;SDS011;41913;51.030;3.706;2024-03-02T14:07:39;2.25;;;1.35;;
56045;SDS011;41913;51.030;3.706;2024-03-02T14:10:05;3.72;;;1.48;;
56045;SDS011;41913;51.030;3.706;2024-03-02T14:12:31;3.97;;;1.10;;
56045;SDS011;41913;51.030;3.706;2024-03-02T14:14:57;6.75;;;1.35;;
56045;SDS011;41913;51.030;3.706;2024-03-02T14:17:26;3.00;;;1.20;;
56045;SDS011;41913;51.030;3.706;2024-03-02T14:19:52;8.88;;;1.23;;
56045;SDS011;41913;51.030;3.706;2024-03-02T14:22:19;11.13;;;1.98;;
56045;SDS011;41913;51.030;3.706;2024-03-02T14:24:45;7.20;;;1.70;;
56045;SDS011;41913;51.030;3.706;2024-03-02T14:27:13;4.40;;;0.63;;
56045;SDS011;41913;51.030;3.706;2024-03-02T14:29:39;7.38;;;1.50;;
56045;SDS011;41913;51.030;3.706;2024-03-02T14:32:06;6.20;;;1.35;;
56045;SDS011;41913;51.030;3.706;2024-03-02T14:34:32;5.32;;;1.55;;
56045;SDS011;41913;51.030;3.706;2024-03-02T14:36:58;2.40;;;1.05;;
56045;SDS011;41913;51.030;3.706;2024-03-02T14:39:25;4.68;;;1.40;;
56045;SDS011;41913;51.030;3.706;2024-03-02T14:41:51;2.15;;;1.00;;
56045;SDS011;41913;51.030;3.706;2024-03-02T14:44:18;2.88;;;1.08;;
56045;SDS011;41913;51.030;3.706;2024-03-02T14:46:47;1.92;;;0.85;;
56045;SDS011;41913;51.030;3.706;2024-03-02T14:49:14;2.13;;;1.10;;
56045;SDS011;41913;51.030;3.706;2024-03-02T14:51:40;5.00;;;1.20;;
56045;SDS011;41913;51.030;3.706;2024-03-02T14:54:06;2.75;;;1.25;;
56045;SDS011;41913;51.030;3.706;2024-03-02T14:56:31;1.25;;;0.90;;
56045;SDS011;41913;51.030;3.706;2024-03-02T14:58:57;1.50;;;0.90;;
56045;SDS011;41913;51.030;3.706;2024-03-02T15:01:25;2.35;;;1.08;;
56045;SDS011;41913;51.030;3.706;2024-03-02T15:03:51;3.83;;;1.00;;
56045;SDS011;41913;51.030;3.706;2024-03-02T15:06:17;1.17;;;0.90;;
56045;SDS011;41913;51.030;3.706;2024-03-02T15:08:43;5.43;;;1.23;;